createdAt,value
2022-11-24T00:01:48.729Z,2.22
2022-11-24T00:04:17.225Z,2.38
2022-11-24T00:06:48.286Z,2.53
2022-11-24T00:09:16.483Z,2.40
2022-11-24T00:11:48.100Z,3.10
2022-11-24T00:14:16.527Z,2.50
2022-11-24T00:16:45.310Z,2.13
2022-11-24T00:19:19.446Z,2.53
2022-11-24T00:21:47.963Z,2.67
2022-11-24T00:24:16.228Z,2.67
2022-11-24T00:26:45.838Z,3.33
2022-11-24T00:29:15.031Z,2.58
2022-11-24T00:31:44.045Z,3.67
2022-11-24T00:34:14.556Z,2.28
2022-11-24T00:36:47.051Z,2.42
2022-11-24T00:39:17.272Z,3.03
2022-11-24T00:41:46.704Z,3.40
2022-11-24T00:44:14.750Z,2.90
2022-11-24T00:46:43.286Z,2.40
2022-11-24T00:49:12.030Z,2.65
2022-11-24T00:51:40.240Z,2.42
2022-11-24T00:54:09.352Z,2.63
2022-11-24T00:56:38.490Z,2.75
2022-11-24T00:59:08.121Z,2.63
2022-11-24T01:01:37.474Z,2.65
2022-11-24T01:04:05.951Z,2.70
2022-11-24T01:06:35.937Z,2.45
2022-11-24T01:09:05.383Z,2.45
2022-11-24T01:11:55.565Z,2.92
2022-11-24T01:14:26.820Z,2.10
2022-11-24T01:16:55.385Z,2.83
2022-11-24T01:19:24.158Z,2.60
2022-11-24T01:21:52.921Z,2.90
2022-11-24T01:24:21.102Z,2.70
2022-11-24T01:26:52.330Z,2.40
2022-11-24T01:29:20.441Z,2.35
2022-11-24T01:31:50.972Z,2.10
2022-11-24T01:34:20.806Z,3.15
2022-11-24T01:36:50.218Z,2.83
2022-11-24T01:39:20.315Z,3.63
2022-11-24T01:41:48.487Z,3.30
2022-11-24T01:44:25.226Z,2.83
2022-11-24T01:46:58.780Z,2.70
2022-11-24T01:49:33.398Z,2.30
2022-11-24T01:52:09.623Z,3.42
2022-11-24T01:54:40.595Z,3.38
2022-11-24T01:57:14.344Z,4.50
2022-11-24T01:59:44.353Z,4.30
2022-11-24T02:02:15.313Z,4.32
2022-11-24T02:04:45.390Z,3.05
2022-11-24T02:07:15.276Z,3.13
2022-11-24T02:09:51.100Z,3.42
2022-11-24T02:12:19.502Z,2.70
2022-11-24T02:14:48.005Z,2.60
2022-11-24T02:17:19.077Z,2.63
2022-11-24T02:19:54.659Z,2.38
2022-11-24T02:22:29.185Z,2.83
2022-11-24T02:25:01.463Z,2.55
2022-11-24T02:27:31.576Z,2.97
2022-11-24T02:30:02.468Z,2.85
2022-11-24T02:32:33.203Z,3.50
2022-11-24T02:35:02.122Z,2.90
2022-11-24T02:37:31.499Z,3.00
2022-11-24T02:40:02.672Z,3.08
2022-11-24T02:42:38.657Z,2.30
2022-11-24T02:45:11.557Z,2.30
2022-11-24T02:47:39.908Z,2.13
2022-11-24T02:50:08.514Z,2.13
2022-11-24T02:52:36.921Z,2.40
2022-11-24T02:55:05.497Z,2.58
2022-11-24T02:57:35.201Z,2.60
2022-11-24T03:00:03.908Z,2.17
2022-11-24T03:02:34.617Z,2.95
2022-11-24T03:05:02.728Z,2.60
2022-11-24T03:07:31.045Z,2.25
2022-11-24T03:09:59.226Z,2.20
2022-11-24T03:12:27.662Z,2.05
2022-11-24T03:14:59.952Z,2.60
2022-11-24T03:17:28.202Z,2.47
2022-11-24T03:20:04.167Z,2.78
2022-11-24T03:22:32.928Z,2.80
2022-11-24T03:25:01.239Z,2.38
2022-11-24T03:27:29.299Z,2.30
2022-11-24T03:29:59.021Z,2.60
2022-11-24T03:32:27.402Z,2.40
2022-11-24T03:34:56.675Z,2.42
2022-11-24T03:37:29.966Z,2.50
2022-11-24T03:39:59.724Z,2.25
2022-11-24T03:42:28.321Z,2.40
2022-11-24T03:45:29.857Z,2.47
2022-11-24T03:48:00.601Z,2.30
2022-11-24T03:50:29.163Z,2.95
2022-11-24T03:53:05.336Z,2.05
2022-11-24T03:55:38.013Z,2.17
2022-11-24T03:58:07.993Z,1.92
2022-11-24T04:00:38.586Z,1.95
2022-11-24T04:03:07.445Z,2.92
2022-11-24T04:05:39.595Z,2.50
2022-11-24T04:08:12.778Z,2.33
2022-11-24T04:13:20.225Z,2.33
2022-11-24T04:15:57.902Z,2.13
2022-11-24T04:18:30.055Z,3.05
2022-11-24T04:20:58.779Z,2.30
2022-11-24T04:23:28.787Z,2.15
2022-11-24T04:26:03.098Z,3.30
2022-11-24T04:28:36.368Z,2.15
2022-11-24T04:31:10.436Z,2.70
2022-11-24T04:33:40.024Z,2.17
2022-11-24T04:36:24.510Z,2.55
2022-11-24T04:39:24.144Z,2.78
2022-11-24T04:41:43.771Z,2.63
2022-11-24T04:44:16.224Z,2.95
2022-11-24T04:46:47.724Z,3.47
2022-11-24T04:49:19.913Z,2.42
2022-11-24T04:51:50.295Z,3.20
2022-11-24T04:54:21.187Z,2.60
2022-11-24T04:56:56.137Z,2.38
2022-11-24T04:59:25.846Z,2.00
2022-11-24T05:01:57.482Z,2.63
2022-11-24T05:04:26.658Z,3.05
2022-11-24T05:06:57.114Z,2.17
2022-11-24T05:09:41.979Z,2.47
2022-11-24T05:12:16.177Z,3.00
2022-11-24T05:14:46.346Z,3.20
2022-11-24T05:17:16.818Z,2.35
2022-11-24T05:19:50.904Z,2.65
2022-11-24T05:22:22.621Z,2.63
2022-11-24T05:24:57.500Z,2.35
2022-11-24T05:27:31.501Z,2.85
2022-11-24T05:30:09.408Z,2.50
2022-11-24T05:32:46.000Z,2.45
2022-11-24T05:35:15.575Z,3.20
2022-11-24T05:37:44.502Z,2.20
2022-11-24T05:40:14.732Z,2.70
2022-11-24T05:42:48.373Z,2.78
2022-11-24T05:45:20.288Z,2.40
2022-11-24T05:47:54.472Z,2.75
2022-11-24T05:50:39.833Z,3.50
2022-11-24T05:53:17.342Z,3.55
2022-11-24T05:55:47.541Z,2.60
2022-11-24T05:58:16.304Z,2.67
2022-11-24T06:00:46.251Z,2.25
2022-11-24T06:03:18.311Z,3.35
2022-11-24T06:05:53.396Z,3.40
2022-11-24T06:08:28.181Z,3.47
2022-11-24T06:11:18.166Z,3.95
2022-11-24T06:13:48.752Z,3.50
2022-11-24T06:16:19.331Z,6.05
2022-11-24T06:18:52.344Z,2.78
2022-11-24T06:21:25.595Z,2.33
2022-11-24T06:23:57.300Z,2.25
2022-11-24T06:26:31.833Z,2.67
2022-11-24T06:29:03.240Z,2.10
2022-11-24T06:31:36.924Z,2.08
2022-11-24T06:34:11.746Z,2.28
2022-11-24T06:36:40.943Z,2.90
2022-11-24T06:39:10.424Z,2.50
2022-11-24T06:41:39.120Z,2.72
2022-11-24T06:44:09.844Z,2.83
2022-11-24T06:46:41.554Z,2.58
2022-11-24T06:49:19.081Z,2.70
2022-11-24T06:51:51.672Z,2.38
2022-11-24T06:54:22.524Z,2.63
2022-11-24T06:56:58.352Z,2.10
2022-11-24T06:59:31.238Z,2.72
2022-11-24T07:02:08.688Z,2.60
2022-11-24T07:04:59.304Z,3.25
2022-11-24T07:07:28.588Z,2.35
2022-11-24T07:10:18.411Z,2.25
2022-11-24T07:12:54.717Z,2.10
2022-11-24T07:15:27.310Z,2.78
2022-11-24T07:18:19.508Z,2.78
2022-11-24T07:21:10.547Z,2.45
2022-11-24T07:23:41.706Z,2.15
2022-11-24T07:26:11.340Z,2.47
2022-11-24T07:28:40.636Z,2.40
2022-11-24T07:31:12.712Z,2.28
2022-11-24T07:33:42.164Z,2.47
2022-11-24T07:36:20.317Z,2.75
2022-11-24T07:38:50.429Z,2.30
2022-11-24T07:41:30.196Z,2.42
2022-11-24T07:44:01.328Z,2.58
2022-11-24T07:46:33.002Z,2.75
2022-11-24T07:49:03.127Z,2.38
2022-11-24T07:51:34.517Z,2.50
2022-11-24T07:54:03.525Z,2.63
2022-11-24T07:56:32.413Z,2.72
2022-11-24T07:59:02.027Z,3.58
2022-11-24T08:01:32.261Z,2.67
2022-11-24T08:04:05.135Z,2.70
2022-11-24T08:06:40.980Z,2.58
2022-11-24T08:11:56.238Z,2.47
2022-11-24T08:14:39.027Z,2.92
2022-11-24T08:17:10.099Z,1.98
2022-11-24T08:26:06.093Z,2.85
2022-11-24T08:28:45.646Z,2.45
2022-11-24T08:31:16.964Z,2.05
2022-11-24T08:33:51.872Z,2.28
2022-11-24T08:36:27.692Z,2.20
2022-11-24T08:38:58.259Z,2.00
2022-11-24T08:41:31.459Z,2.65
2022-11-24T08:44:02.391Z,1.90
2022-11-24T08:46:33.815Z,2.00
2022-11-24T08:49:05.330Z,2.10
2022-11-24T08:51:36.292Z,1.92
2022-11-24T08:54:08.255Z,1.70
2022-11-24T08:56:55.429Z,2.33
2022-11-24T08:59:24.306Z,2.38
2022-11-24T09:01:55.932Z,1.77
2022-11-24T09:04:24.709Z,1.27
2022-11-24T09:06:55.682Z,1.27
2022-11-24T09:09:28.039Z,1.40
2022-11-24T09:11:58.842Z,1.63
2022-11-24T09:14:31.060Z,2.58
2022-11-24T09:17:02.114Z,1.73
2022-11-24T09:19:31.102Z,1.92
2022-11-24T09:22:00.776Z,2.00
2022-11-24T09:24:29.202Z,1.50
2022-11-24T09:27:01.062Z,1.40
2022-11-24T09:29:30.880Z,1.50
2022-11-24T09:32:06.569Z,1.20
2022-11-24T09:34:37.156Z,1.40
2022-11-24T09:37:11.362Z,1.25
2022-11-24T09:39:40.086Z,1.23
2022-11-24T09:42:21.530Z,1.50
2022-11-24T09:45:48.977Z,1.25
2022-11-24T09:48:18.857Z,1.10
2022-11-24T09:50:54.570Z,1.30
2022-11-24T09:53:33.398Z,0.93
2022-11-24T09:56:06.670Z,1.00
2022-11-24T09:58:48.598Z,1.17
2022-11-24T10:01:21.238Z,0.90
2022-11-24T10:03:54.472Z,1.13
2022-11-24T10:06:32.119Z,1.45
2022-11-24T10:09:18.447Z,1.58
2022-11-24T10:11:56.847Z,1.42
2022-11-24T10:15:11.640Z,1.42
2022-11-24T10:18:10.503Z,0.88
2022-11-24T10:20:53.843Z,1.17
2022-11-24T10:23:39.917Z,1.13
2022-11-24T10:26:19.516Z,1.02
2022-11-24T10:28:55.998Z,1.42
2022-11-24T10:31:35.562Z,1.30
2022-11-24T10:34:15.181Z,1.10
2022-11-24T10:36:51.686Z,1.00
2022-11-24T10:39:36.064Z,1.23
2022-11-24T10:42:17.594Z,1.08
2022-11-24T10:44:50.575Z,1.35
2022-11-24T10:47:24.447Z,1.55
2022-11-24T10:50:01.284Z,1.70
2022-11-24T10:52:42.825Z,1.08
2022-11-24T10:55:21.718Z,1.40
2022-11-24T10:57:59.679Z,1.80
2022-11-24T11:00:44.738Z,1.90
2022-11-24T11:03:23.463Z,1.13
2022-11-24T11:05:59.412Z,1.42
2022-11-24T11:08:34.039Z,0.98
2022-11-24T11:11:23.812Z,1.10
2022-11-24T11:14:05.492Z,1.13
2022-11-24T11:16:40.077Z,1.38
2022-11-24T11:19:50.500Z,1.40
2022-11-24T11:22:30.458Z,1.50
2022-11-24T11:25:20.062Z,1.48
2022-11-24T11:27:54.930Z,1.70
2022-11-24T11:36:22.763Z,1.48
2022-11-24T11:38:57.833Z,1.70
2022-11-24T11:41:36.219Z,1.45
2022-11-24T11:44:20.876Z,1.25
2022-11-24T11:46:54.579Z,1.55
2022-11-24T11:49:26.691Z,1.70
2022-11-24T11:52:15.305Z,1.33
2022-11-24T11:55:16.443Z,1.60
2022-11-24T11:58:02.743Z,2.13
2022-11-24T12:00:39.416Z,1.77
2022-11-24T12:03:29.552Z,1.63
2022-11-24T12:06:08.807Z,1.70
2022-11-24T12:09:18.483Z,1.60
2022-11-24T12:11:49.147Z,1.95
2022-11-24T12:14:30.264Z,2.00
2022-11-24T12:17:16.279Z,1.13
2022-11-24T12:20:18.292Z,1.60
2022-11-24T12:23:00.220Z,2.00
2022-11-24T12:25:59.548Z,1.20
2022-11-24T12:28:52.442Z,1.27
2022-11-24T12:31:35.432Z,1.30
2022-11-24T12:34:33.680Z,1.83
2022-11-24T12:37:20.572Z,1.20
2022-11-24T12:40:06.158Z,1.65
2022-11-24T12:42:56.068Z,1.58
2022-11-24T12:45:38.505Z,1.50
2022-11-24T12:48:28.229Z,1.77
2022-11-24T12:51:09.024Z,1.25
2022-11-24T12:53:46.269Z,2.30
2022-11-24T12:56:24.134Z,1.40
2022-11-24T12:59:17.713Z,1.40
2022-11-24T13:01:58.524Z,1.52
2022-11-24T13:04:38.488Z,1.17
2022-11-24T13:07:21.811Z,1.40
2022-11-24T13:10:55.811Z,1.90
2022-11-24T13:13:24.605Z,1.50
2022-11-24T13:16:36.868Z,1.65
2022-11-24T13:19:23.471Z,1.23
2022-11-24T13:22:20.734Z,2.65
2022-11-24T13:25:21.244Z,2.00
2022-11-24T13:28:03.258Z,1.52
2022-11-24T13:30:59.011Z,2.33
2022-11-24T13:33:35.930Z,2.08
2022-11-24T13:36:36.863Z,3.15
2022-11-24T13:39:48.984Z,2.05
2022-11-24T13:42:43.115Z,3.17
2022-11-24T13:45:59.683Z,4.93
2022-11-24T13:49:15.687Z,2.17
2022-11-24T13:51:49.433Z,2.40
2022-11-24T13:54:23.688Z,1.67
2022-11-24T13:56:53.930Z,2.38
2022-11-24T13:59:39.632Z,2.05
2022-11-24T14:02:29.223Z,2.67
2022-11-24T14:05:01.938Z,2.30
2022-11-24T14:07:34.907Z,2.03
2022-11-24T14:10:17.951Z,2.30
2022-11-24T14:13:13.648Z,2.40
2022-11-24T14:15:42.147Z,2.53
2022-11-24T14:18:18.050Z,2.60
2022-11-24T14:20:49.668Z,2.60
2022-11-24T14:23:18.140Z,2.35
2022-11-24T14:25:50.154Z,2.40
2022-11-24T14:28:25.066Z,3.15
2022-11-24T14:31:07.173Z,2.83
2022-11-24T14:33:35.679Z,1.98
2022-11-24T14:36:05.951Z,2.03
2022-11-24T14:38:35.161Z,2.00
2022-11-24T14:41:23.477Z,1.73
2022-11-24T14:43:51.670Z,2.05
2022-11-24T14:46:21.240Z,2.08
2022-11-24T14:48:51.252Z,2.58
2022-11-24T14:51:24.651Z,2.45
2022-11-24T14:53:54.317Z,2.20
2022-11-24T14:56:27.484Z,2.95
2022-11-24T15:01:33.030Z,1.98
2022-11-24T15:04:32.432Z,1.70
2022-11-24T15:07:26.748Z,2.40
2022-11-24T15:10:00.421Z,2.30
2022-11-24T15:12:41.963Z,2.50
2022-11-24T15:15:24.621Z,2.35
2022-11-24T15:17:55.759Z,2.45
2022-11-24T15:20:32.633Z,2.88
2022-11-24T15:23:27.681Z,3.30
2022-11-24T15:25:56.730Z,2.78
2022-11-24T15:28:28.094Z,3.05
2022-11-24T15:31:00.856Z,3.35
2022-11-24T15:33:33.685Z,7.07
2022-11-24T15:36:04.381Z,6.30
2022-11-24T15:38:37.223Z,5.40
2022-11-24T15:41:18.311Z,4.88
2022-11-24T15:43:48.021Z,3.88
2022-11-24T15:46:18.196Z,3.05
2022-11-24T15:48:50.920Z,3.00
2022-11-24T15:51:26.306Z,3.67
2022-11-24T15:54:01.358Z,4.30
2022-11-24T15:56:42.073Z,3.47
2022-11-24T15:59:20.839Z,4.18
2022-11-24T16:01:52.349Z,3.08
2022-11-24T16:04:23.737Z,3.17
2022-11-24T16:06:52.853Z,3.75
2022-11-24T16:09:25.324Z,3.50
2022-11-24T16:11:58.876Z,3.88
2022-11-24T16:14:30.157Z,4.72
2022-11-24T16:16:59.379Z,5.28
2022-11-24T16:19:32.875Z,5.13
2022-11-24T16:22:07.978Z,6.03
2022-11-24T16:24:45.737Z,6.15
2022-11-24T16:27:17.488Z,5.43
2022-11-24T16:29:50.611Z,4.18
2022-11-24T16:34:55.029Z,3.75
2022-11-24T16:37:24.238Z,4.18
2022-11-24T16:40:05.300Z,5.22
2022-11-24T16:42:34.659Z,5.50
2022-11-24T16:45:07.031Z,5.63
2022-11-24T16:47:44.048Z,8.50
2022-11-24T16:50:19.013Z,8.77
2022-11-24T16:52:48.148Z,8.50
2022-11-24T16:55:18.181Z,9.25
2022-11-24T16:57:49.322Z,8.60
2022-11-24T17:00:22.791Z,8.23
2022-11-24T17:02:55.116Z,9.73
2022-11-24T17:05:25.919Z,9.60
2022-11-24T17:08:01.293Z,9.93
2022-11-24T17:10:36.370Z,9.25
2022-11-24T17:13:07.839Z,9.32
2022-11-24T17:15:46.137Z,11.38
2022-11-24T17:18:24.944Z,14.18
2022-11-24T17:20:53.991Z,13.07
2022-11-24T17:23:22.809Z,9.77
2022-11-24T17:25:55.557Z,11.77
2022-11-24T17:28:30.070Z,11.18
2022-11-24T17:31:01.638Z,11.45
2022-11-24T17:33:44.359Z,11.00
2022-11-24T17:36:15.194Z,9.40
2022-11-24T17:38:53.262Z,10.43
2022-11-24T17:41:27.230Z,10.55
2022-11-24T17:43:58.154Z,12.55
2022-11-24T17:46:30.359Z,11.50
2022-11-24T17:49:15.511Z,11.60
2022-11-24T17:51:47.908Z,10.32
2022-11-24T17:57:13.272Z,15.10
2022-11-24T17:59:42.701Z,16.25
2022-11-24T18:02:19.097Z,16.42
2022-11-24T18:04:48.676Z,14.70
2022-11-24T18:07:21.197Z,13.70
2022-11-24T18:09:50.812Z,14.27
2022-11-24T18:12:21.883Z,13.18
2022-11-24T18:14:51.046Z,12.63
2022-11-24T18:17:19.675Z,12.98
2022-11-24T18:19:49.556Z,12.32
2022-11-24T18:22:21.041Z,12.00
2022-11-24T18:24:58.412Z,11.10
2022-11-24T18:27:33.920Z,10.82
2022-11-24T18:30:05.701Z,12.73
2022-11-24T18:32:40.281Z,12.02
2022-11-24T18:35:11.909Z,11.95
2022-11-24T18:37:46.285Z,10.38
2022-11-24T18:40:17.167Z,11.40
2022-11-24T18:42:48.389Z,10.50
2022-11-24T18:45:23.115Z,11.20
2022-11-24T18:47:52.702Z,12.57
2022-11-24T18:50:23.719Z,12.63
2022-11-24T18:52:52.422Z,11.30
2022-11-24T18:55:21.826Z,10.43
2022-11-24T18:57:53.812Z,11.65
2022-11-24T19:00:25.261Z,13.05
2022-11-24T19:02:56.107Z,11.60
2022-11-24T19:05:29.287Z,11.98
2022-11-24T19:07:59.115Z,11.48
2022-11-24T19:10:31.323Z,11.60
2022-11-24T19:13:06.478Z,11.73
2022-11-24T19:15:37.827Z,11.82
2022-11-24T19:18:15.360Z,13.02
2022-11-24T19:20:48.871Z,10.60
2022-11-24T19:23:23.607Z,11.18
2022-11-24T19:25:56.961Z,11.32
2022-11-24T19:28:35.226Z,10.80
2022-11-24T19:31:08.133Z,10.43
2022-11-24T19:33:41.361Z,10.55
2022-11-24T19:36:13.818Z,12.60
2022-11-24T19:39:05.507Z,11.95
2022-11-24T19:41:35.999Z,12.48
2022-11-24T19:44:08.928Z,11.95
2022-11-24T19:46:48.211Z,12.80
2022-11-24T19:49:17.443Z,11.90
2022-11-24T19:51:53.823Z,11.45
2022-11-24T19:54:34.201Z,11.30
2022-11-24T19:57:08.739Z,10.65
2022-11-24T19:59:40.340Z,10.40
2022-11-24T20:02:14.194Z,9.75
2022-11-24T20:04:47.509Z,11.13
2022-11-24T20:07:16.468Z,11.77
2022-11-24T20:09:47.194Z,12.05
2022-11-24T20:12:16.125Z,12.93
2022-11-24T20:14:46.766Z,14.48
2022-11-24T20:17:15.284Z,14.77
2022-11-24T20:19:44.797Z,13.77
2022-11-24T20:22:16.579Z,13.88
2022-11-24T20:24:48.091Z,14.43
2022-11-24T20:27:19.889Z,14.48
2022-11-24T20:29:49.934Z,14.60
2022-11-24T20:32:19.657Z,14.32
2022-11-24T20:34:51.046Z,14.82
2022-11-24T20:37:22.874Z,13.60
2022-11-24T20:39:54.294Z,16.33
2022-11-24T20:42:23.647Z,15.35
2022-11-24T20:44:53.314Z,14.35
2022-11-24T20:47:25.053Z,11.77
2022-11-24T20:49:56.441Z,11.63
2022-11-24T20:52:28.921Z,11.35
2022-11-24T20:55:05.897Z,11.38
2022-11-24T20:57:40.163Z,13.15
2022-11-24T21:00:14.344Z,13.45
2022-11-24T21:02:43.689Z,13.80
2022-11-24T21:05:23.459Z,16.52
2022-11-24T21:07:54.226Z,15.23
2022-11-24T21:10:26.325Z,14.73
2022-11-24T21:13:00.853Z,14.50
2022-11-24T21:15:34.473Z,14.02
2022-11-24T21:18:06.673Z,12.40
2022-11-24T21:20:40.424Z,13.00
2022-11-24T21:23:10.214Z,11.52
2022-11-24T21:25:42.920Z,12.65
2022-11-24T21:28:13.438Z,11.77
2022-11-24T21:30:50.410Z,12.40
2022-11-24T21:33:27.392Z,11.23
2022-11-24T21:35:56.360Z,11.57
2022-11-24T21:38:26.008Z,12.93
2022-11-24T21:40:54.521Z,12.82
2022-11-24T21:43:24.026Z,12.43
2022-11-24T21:46:02.330Z,12.60
2022-11-24T21:48:31.655Z,15.30
2022-11-24T21:51:03.502Z,12.25
2022-11-24T21:53:34.995Z,11.35
2022-11-24T21:56:06.606Z,11.07
2022-11-24T21:58:36.427Z,10.52
2022-11-24T22:01:16.192Z,11.73
2022-11-24T22:03:52.555Z,10.40
2022-11-24T22:06:22.662Z,11.60
2022-11-24T22:08:59.875Z,13.32
2022-11-24T22:11:28.664Z,15.98
2022-11-24T22:13:59.631Z,16.40
2022-11-24T22:16:32.458Z,18.52
2022-11-24T22:19:07.388Z,17.67
2022-11-24T22:21:36.935Z,16.05
2022-11-24T22:24:06.241Z,16.15
2022-11-24T22:26:37.990Z,16.25
2022-11-24T22:29:11.599Z,14.63
2022-11-24T22:31:47.657Z,14.95
2022-11-24T22:34:16.913Z,14.35
2022-11-24T22:36:45.866Z,13.27
2022-11-24T22:39:16.389Z,13.45
2022-11-24T22:41:46.885Z,14.27
2022-11-24T22:44:20.788Z,12.50
2022-11-24T22:46:53.872Z,12.40
2022-11-24T22:51:57.383Z,11.60
2022-11-24T22:54:27.492Z,12.15
2022-11-24T22:56:57.824Z,11.30
2022-11-24T22:59:27.379Z,11.57
2022-11-24T23:01:57.821Z,11.20
2022-11-24T23:04:26.723Z,11.20
2022-11-24T23:06:55.345Z,12.05
2022-11-24T23:09:26.073Z,11.55
2022-11-24T23:11:54.800Z,12.38
2022-11-24T23:14:23.700Z,13.27
2022-11-24T23:17:01.071Z,12.88
2022-11-24T23:19:30.069Z,13.95
2022-11-24T23:21:58.996Z,15.77
2022-11-24T23:24:28.382Z,13.68
2022-11-24T23:26:57.750Z,18.13
2022-11-24T23:29:26.185Z,15.40
2022-11-24T23:31:57.737Z,12.77
2022-11-24T23:34:27.469Z,13.77
2022-11-24T23:37:01.482Z,13.23
2022-11-24T23:39:32.916Z,11.70
2022-11-24T23:42:03.706Z,13.80
2022-11-24T23:44:34.927Z,13.85
2022-11-24T23:47:06.717Z,14.35
2022-11-24T23:49:44.199Z,16.30
2022-11-24T23:52:13.030Z,20.50
2022-11-24T23:54:42.817Z,25.10
2022-11-24T23:57:19.379Z,29.38
2022-11-24T23:59:50.480Z,31.75
